Time;durP1;ratioP1;P1;durP2;ratioP2;P2;SDS_P1;SDS_P2;PMS_P1;PMS_P2;Temp;Humidity;BMP_temperature;BMP_pressure;BME280_temperature;BME280_humidity;BME280_pressure;Samples;Min_cycle;Max_cycle;Signal;HPM_P1;HPM_P2
2023/08/18 00:00:53;;;;;;;6.82;6.00;;;20.20;99.90;;;;;;5081364;28;20168;-83
2023/08/18 00:03:19;;;;;;;7.97;5.78;;;20.20;99.90;;;;;;5100393;28;20164;-84
2023/08/18 00:05:44;;;;;;;7.88;5.97;;;20.10;99.90;;;;;;5082101;28;20187;-84
2023/08/18 00:08:10;;;;;;;6.25;5.72;;;20.10;99.90;;;;;;5082015;28;20291;-83
2023/08/18 00:10:35;;;;;;;7.25;5.18;;;20.10;99.90;;;;;;5080649;28;20179;-83
2023/08/18 00:13:01;;;;;;;7.05;5.22;;;19.90;99.90;;;;;;5099307;28;20246;-83
2023/08/18 00:15:27;;;;;;;6.13;5.53;;;19.90;99.90;;;;;;5099183;28;20177;-84
2023/08/18 00:17:52;;;;;;;6.47;5.88;;;19.90;99.90;;;;;;5081487;28;20190;-83
2023/08/18 00:20:18;;;;;;;9.40;4.15;;;19.90;99.90;;;;;;5099062;28;20169;-84
2023/08/18 00:22:43;;;;;;;5.32;4.82;;;19.70;99.90;;;;;;5081242;28;20169;-84
2023/08/18 00:25:09;;;;;;;6.43;5.28;;;19.60;99.90;;;;;;5080945;28;20639;-84
2023/08/18 00:27:36;;;;;;;6.65;4.97;;;19.60;99.90;;;;;;5098868;28;20571;-83
2023/08/18 00:30:01;;;;;;;7.95;4.85;;;19.50;99.90;;;;;;5098955;28;20172;-84
2023/08/18 00:32:27;;;;;;;5.93;5.30;;;19.40;99.90;;;;;;5098852;28;20294;-84
2023/08/18 00:34:53;;;;;;;4.97;4.47;;;19.40;99.90;;;;;;5081327;28;20276;-82
2023/08/18 00:37:18;;;;;;;5.93;5.28;;;19.40;99.90;;;;;;5080665;28;20165;-83
2023/08/18 00:39:44;;;;;;;5.15;4.63;;;19.40;99.90;;;;;;5098624;28;20173;-84
2023/08/18 00:42:09;;;;;;;5.20;4.55;;;19.30;99.90;;;;;;5099569;28;20191;-83
2023/08/18 00:44:35;;;;;;;6.57;4.72;;;19.30;99.90;;;;;;5081216;28;20212;-82
2023/08/18 00:47:01;;;;;;;5.00;4.60;;;19.30;99.90;;;;;;5079971;28;20164;-83
2023/08/18 00:49:27;;;;;;;5.30;4.28;;;19.20;99.90;;;;;;5098999;28;20176;-83
2023/08/18 00:51:53;;;;;;;5.20;4.70;;;19.20;99.90;;;;;;5098246;28;20156;-83
2023/08/18 00:54:19;;;;;;;7.47;4.60;;;19.10;99.90;;;;;;5080494;28;20199;-83
2023/08/18 00:56:46;;;;;;;6.25;4.90;;;19.10;99.90;;;;;;5098666;28;20221;-83
2023/08/18 00:59:13;;;;;;;5.18;4.68;;;19.20;99.90;;;;;;5097767;28;20216;-83
2023/08/18 01:01:39;;;;;;;5.93;5.15;;;19.20;99.90;;;;;;5080046;28;20263;-83
2023/08/18 01:04:06;;;;;;;5.97;5.03;;;19.30;99.90;;;;;;5080692;28;20616;-83
2023/08/18 01:06:32;;;;;;;8.45;5.50;;;19.40;99.90;;;;;;5098582;28;20207;-83
2023/08/18 01:08:57;;;;;;;6.43;5.82;;;19.30;99.90;;;;;;5080559;28;20239;-83
2023/08/18 01:11:58;;;;;;;7.68;5.20;;;19.30;99.90;;;;;;5097768;28;20168;-83
2023/08/18 01:14:40;;;;;;;8.65;5.57;;;19.40;99.90;;;;;;5042411;28;20231;-82
2023/08/18 01:17:31;;;;;;;6.40;5.80;;;19.30;99.90;;;;;;5080039;28;20180;-84
2023/08/18 01:19:58;;;;;;;6.30;5.70;;;19.20;99.90;;;;;;5098184;28;20176;-83
2023/08/18 01:22:24;;;;;;;6.05;5.45;;;19.10;99.90;;;;;;5079325;28;20209;-84
2023/08/18 01:24:50;;;;;;;6.63;4.75;;;19.20;99.90;;;;;;5098061;28;20169;-84
2023/08/18 01:27:15;;;;;;;5.75;5.25;;;19.10;99.90;;;;;;5098164;28;20187;-85
2023/08/18 01:29:41;;;;;;;5.28;4.78;;;19.20;99.90;;;;;;5097302;28;20168;-83
2023/08/18 01:32:08;;;;;;;5.70;5.20;;;19.20;99.90;;;;;;5097910;28;20181;-84
2023/08/18 01:34:39;;;;;;;7.85;5.55;;;19.10;99.90;;;;;;5097244;28;20176;-85
2023/08/18 01:37:05;;;;;;;7.28;5.07;;;19.20;99.90;;;;;;5098061;28;20549;-83
2023/08/18 01:39:32;;;;;;;7.35;5.43;;;19.30;99.90;;;;;;5079512;28;20222;-83
2023/08/18 01:41:58;;;;;;;6.15;5.35;;;19.20;99.90;;;;;;5097205;28;20175;-83
2023/08/18 01:44:24;;;;;;;5.68;5.03;;;19.10;99.90;;;;;;5097409;28;20199;-83
2023/08/18 01:46:49;;;;;;;5.03;4.63;;;19.10;99.90;;;;;;5078244;28;20176;-83
2023/08/18 01:49:15;;;;;;;6.07;4.65;;;19.00;99.90;;;;;;5079558;28;20188;-83
2023/08/18 01:51:41;;;;;;;6.85;5.65;;;19.00;99.90;;;;;;5096916;28;20702;-83
2023/08/18 01:54:06;;;;;;;8.27;6.07;;;19.00;99.90;;;;;;5078810;28;20204;-83
2023/08/18 01:56:32;;;;;;;5.90;5.40;;;19.10;99.90;;;;;;5098116;28;20169;-83
2023/08/18 01:58:57;;;;;;;7.07;5.53;;;19.00;99.90;;;;;;5096914;28;20215;-84
2023/08/18 02:01:23;;;;;;;4.88;3.55;;;19.00;99.90;;;;;;5079282;28;20217;-83
2023/08/18 02:03:49;;;;;;;5.68;3.90;;;19.00;99.90;;;;;;5097305;28;20180;-84
2023/08/18 02:06:14;;;;;;;5.47;4.28;;;18.80;99.90;;;;;;5097500;28;20194;-83
2023/08/18 02:08:40;;;;;;;6.25;4.80;;;18.70;99.90;;;;;;5079249;28;20193;-83
2023/08/18 02:11:06;;;;;;;5.43;4.82;;;18.60;99.90;;;;;;5097226;28;20176;-84
2023/08/18 02:13:32;;;;;;;5.35;4.85;;;18.60;99.90;;;;;;5096595;28;20207;-84
2023/08/18 02:15:58;;;;;;;6.78;5.07;;;18.60;99.90;;;;;;5097336;28;20172;-84
2023/08/18 02:18:24;;;;;;;5.45;4.85;;;18.70;99.90;;;;;;5078322;28;20608;-84
2023/08/18 02:20:57;;;;;;;5.43;4.43;;;18.80;99.90;;;;;;5077900;28;20172;-84
2023/08/18 02:23:23;;;;;;;6.57;3.95;;;18.80;99.90;;;;;;5096478;28;20251;-84
2023/08/18 02:25:49;;;;;;;5.57;4.10;;;18.70;99.90;;;;;;5078943;28;20203;-84
2023/08/18 02:28:15;;;;;;;5.68;4.20;;;18.60;99.90;;;;;;5078427;28;20274;-83
2023/08/18 02:30:41;;;;;;;8.10;4.88;;;18.50;99.90;;;;;;5077835;28;20172;-83
2023/08/18 02:33:06;;;;;;;4.90;4.50;;;18.50;99.90;;;;;;5078500;28;20332;-85
2023/08/18 02:35:32;;;;;;;5.50;4.20;;;18.50;99.90;;;;;;5079147;28;20263;-83
2023/08/18 02:37:57;;;;;;;4.82;4.32;;;18.60;99.90;;;;;;5095820;28;20189;-82
2023/08/18 02:40:23;;;;;;;5.78;4.82;;;18.70;99.90;;;;;;5077868;28;20171;-83
2023/08/18 02:42:48;;;;;;;5.35;4.85;;;18.70;99.90;;;;;;5077667;28;20179;-83
2023/08/18 02:45:14;;;;;;;5.57;5.07;;;18.60;99.90;;;;;;5077313;28;20176;-83
2023/08/18 02:47:39;;;;;;;7.90;5.05;;;18.60;99.90;;;;;;5078149;28;20200;-84
2023/08/18 02:50:06;;;;;;;8.20;4.90;;;18.60;99.90;;;;;;5077789;28;20172;-84
2023/08/18 02:52:32;;;;;;;5.53;4.82;;;18.60;99.90;;;;;;5096813;28;20224;-84
2023/08/18 02:54:58;;;;;;;5.40;4.90;;;18.70;99.90;;;;;;5096410;28;20180;-84
2023/08/18 02:57:23;;;;;;;6.95;5.55;;;18.50;99.90;;;;;;5078130;28;20188;-84
2023/08/18 02:59:49;;;;;;;4.93;4.53;;;18.40;99.90;;;;;;5096253;28;20176;-83
2023/08/18 03:02:14;;;;;;;5.10;4.60;;;18.30;99.90;;;;;;5078710;28;20176;-83
2023/08/18 03:04:40;;;;;;;5.90;3.85;;;18.30;99.90;;;;;;5077992;28;20228;-83
2023/08/18 03:07:05;;;;;;;5.75;4.45;;;18.20;99.90;;;;;;5077969;28;20249;-84
2023/08/18 03:09:31;;;;;;;4.88;4.07;;;18.10;99.90;;;;;;5077866;28;20172;-83
2023/08/18 03:11:57;;;;;;;4.75;4.25;;;18.10;99.90;;;;;;5095386;28;20179;-83
2023/08/18 03:14:23;;;;;;;4.30;3.90;;;18.20;99.90;;;;;;5077330;28;20247;-84
2023/08/18 03:16:48;;;;;;;5.15;4.75;;;18.30;99.90;;;;;;5078142;28;20211;-83
2023/08/18 03:19:14;;;;;;;5.10;4.70;;;18.30;99.90;;;;;;5096414;28;20192;-83
2023/08/18 03:21:39;;;;;;;5.75;4.80;;;18.50;99.90;;;;;;5077401;28;20240;-83
2023/08/18 03:24:05;;;;;;;5.30;4.80;;;18.50;99.90;;;;;;5077702;28;20172;-83
2023/08/18 03:26:31;;;;;;;5.47;5.00;;;18.50;99.90;;;;;;5080881;28;20173;-84
2023/08/18 03:28:57;;;;;;;4.90;4.50;;;18.60;99.90;;;;;;5081491;28;20192;-84
2023/08/18 03:31:23;;;;;;;4.40;3.88;;;18.50;99.90;;;;;;5081629;28;20173;-85
2023/08/18 03:33:48;;;;;;;4.53;3.80;;;18.40;99.90;;;;;;5081568;28;20308;-85
2023/08/18 03:36:14;;;;;;;6.05;4.47;;;18.40;99.90;;;;;;5099659;28;20215;-83
2023/08/18 03:38:40;;;;;;;5.10;4.50;;;18.20;99.90;;;;;;5099446;28;20188;-84
2023/08/18 03:41:06;;;;;;;5.00;4.35;;;18.10;99.90;;;;;;5080814;28;20176;-83
2023/08/18 03:43:33;;;;;;;4.47;4.07;;;18.10;99.90;;;;;;5081557;28;20203;-83
2023/08/18 03:46:01;;;;;;;5.77;4.27;;;18.10;99.90;;;;;;5080076;28;20169;-83
2023/08/18 03:48:27;;;;;;;6.07;4.25;;;18.10;99.90;;;;;;5080687;28;20196;-83
2023/08/18 03:50:52;;;;;;;4.68;4.28;;;18.00;99.90;;;;;;5099227;28;20180;-84
2023/08/18 03:53:21;;;;;;;5.53;4.50;;;18.10;99.90;;;;;;5099540;28;20252;-84
2023/08/18 03:55:50;;;;;;;5.43;4.90;;;18.10;99.90;;;;;;5099895;28;20191;-83
2023/08/18 03:58:15;;;;;;;5.07;4.57;;;18.10;99.90;;;;;;5081208;28;20249;-84
2023/08/18 04:00:41;;;;;;;5.45;4.50;;;18.00;99.90;;;;;;5099073;28;20666;-84
2023/08/18 04:03:08;;;;;;;7.60;4.97;;;18.00;99.90;;;;;;5099942;28;20191;-83
2023/08/18 04:05:33;;;;;;;18.70;6.25;;;17.90;99.90;;;;;;5099513;28;20183;-83
2023/08/18 04:07:59;;;;;;;15.10;6.40;;;17.80;99.90;;;;;;5099513;28;20192;-83
2023/08/18 04:10:24;;;;;;;6.60;6.00;;;17.70;99.90;;;;;;5099745;28;20182;-83
2023/08/18 04:12:50;;;;;;;7.30;5.80;;;17.70;99.90;;;;;;5099933;28;20215;-83
2023/08/18 04:15:16;;;;;;;6.63;5.87;;;17.70;99.90;;;;;;5099215;28;20165;-83
2023/08/18 04:17:41;;;;;;;6.40;5.47;;;17.80;99.90;;;;;;5098910;28;20249;-83
2023/08/18 04:20:08;;;;;;;5.70;5.13;;;17.90;99.90;;;;;;5099042;28;20172;-84
2023/08/18 04:22:34;;;;;;;5.57;4.80;;;17.80;99.90;;;;;;5080934;28;20183;-84
2023/08/18 04:25:00;;;;;;;8.73;4.03;;;17.70;99.90;;;;;;5080442;28;20168;-83
2023/08/18 04:27:25;;;;;;;4.90;4.40;;;17.70;99.90;;;;;;5080703;28;20390;-83
2023/08/18 04:29:51;;;;;;;5.30;4.80;;;17.70;99.90;;;;;;5079850;28;20183;-85
2023/08/18 04:32:17;;;;;;;5.20;4.70;;;17.80;99.90;;;;;;5080140;28;20173;-83
2023/08/18 04:34:42;;;;;;;4.83;4.43;;;17.70;99.90;;;;;;5080727;28;20169;-83
2023/08/18 04:37:08;;;;;;;4.80;4.30;;;17.70;99.90;;;;;;5080115;28;20164;-84
2023/08/18 04:39:33;;;;;;;4.23;3.70;;;17.70;99.90;;;;;;5080592;28;20172;-84
2023/08/18 04:41:59;;;;;;;4.30;3.90;;;17.70;99.90;;;;;;5079609;28;20168;-83
2023/08/18 04:44:24;;;;;;;5.07;4.10;;;17.70;99.90;;;;;;5098368;28;20169;-83
2023/08/18 04:46:50;;;;;;;4.20;3.70;;;17.60;99.90;;;;;;5078603;28;20188;-83
2023/08/18 04:49:15;;;;;;;5.70;4.20;;;17.50;99.90;;;;;;5098206;28;20616;-85
2023/08/18 04:51:41;;;;;;;4.30;3.90;;;17.60;99.90;;;;;;5097569;28;20172;-83
2023/08/18 04:54:07;;;;;;;5.83;4.20;;;17.70;99.90;;;;;;5079604;28;20227;-83
2023/08/18 04:56:32;;;;;;;6.70;4.20;;;17.70;99.90;;;;;;5079518;28;20222;-83
2023/08/18 04:58:58;;;;;;;6.13;4.30;;;17.80;99.90;;;;;;5129039;23;20280;-88
2023/08/18 05:01:24;;;;;;;5.30;3.90;;;17.70;99.90;;;;;;5114113;28;20175;-87
2023/08/18 05:03:49;;;;;;;5.73;4.47;;;17.60;99.90;;;;;;5113053;28;20176;-87
2023/08/18 05:06:15;;;;;;;8.70;5.33;;;17.60;99.90;;;;;;5113136;28;20180;-86
2023/08/18 05:08:40;;;;;;;7.43;5.47;;;17.60;99.90;;;;;;5113360;28;20204;-86
2023/08/18 05:11:11;;;;;;;8.53;5.60;;;17.60;99.90;;;;;;5115710;28;20175;-82
2023/08/18 05:13:38;;;;;;;10.40;5.50;;;17.60;99.90;;;;;;5117014;27;20196;-82
2023/08/18 05:16:04;;;;;;;5.77;5.17;;;17.60;99.90;;;;;;5115797;28;20167;-82
2023/08/18 05:18:30;;;;;;;5.73;5.23;;;17.60;99.90;;;;;;5115166;28;20194;-82
2023/08/18 05:20:57;;;;;;;5.37;4.80;;;17.60;99.90;;;;;;5116761;28;20174;-82
2023/08/18 05:23:23;;;;;;;4.80;4.40;;;17.80;99.90;;;;;;5116019;28;20171;-82
2023/08/18 05:25:53;;;;;;;5.60;4.60;;;17.80;99.90;;;;;;5115560;28;20178;-82
2023/08/18 05:28:18;;;;;;;5.77;4.57;;;17.90;99.90;;;;;;5116868;28;20217;-82
2023/08/18 05:30:45;;;;;;;5.60;4.37;;;17.90;99.90;;;;;;5116143;28;20615;-81
2023/08/18 05:33:11;;;;;;;5.20;4.70;;;17.90;99.90;;;;;;5116355;27;20282;-82
2023/08/18 05:35:36;;;;;;;5.10;4.60;;;17.90;99.90;;;;;;5116896;28;20205;-82
2023/08/18 05:38:03;;;;;;;5.53;4.40;;;18.00;99.90;;;;;;5115120;28;20187;-84
2023/08/18 05:40:29;;;;;;;7.05;5.20;;;18.00;99.90;;;;;;5113643;28;20188;-83
2023/08/18 05:42:54;;;;;;;5.23;4.30;;;18.00;99.90;;;;;;5115663;28;20174;-82
2023/08/18 05:45:20;;;;;;;4.88;4.40;;;18.00;99.90;;;;;;5113525;28;20168;-85
2023/08/18 05:47:45;;;;;;;5.07;4.67;;;18.00;99.90;;;;;;5115739;28;20263;-79
2023/08/18 05:50:11;;;;;;;4.88;4.00;;;18.10;99.90;;;;;;5114295;28;20183;-77
2023/08/18 05:52:37;;;;;;;4.40;3.97;;;18.80;99.90;;;;;;5112792;28;20303;-78
2023/08/18 05:55:04;;;;;;;4.63;4.22;;;19.80;99.90;;;;;;5114540;28;20168;-81
2023/08/18 05:57:30;;;;;;;3.88;3.53;;;20.30;99.90;;;;;;5115209;28;20175;-80
2023/08/18 05:59:55;;;;;;;5.82;4.47;;;20.40;99.90;;;;;;5137784;27;20205;-79
2023/08/18 06:02:21;;;;;;;4.55;4.15;;;20.20;99.90;;;;;;5138078;27;20229;-80
2023/08/18 06:04:46;;;;;;;4.88;4.47;;;20.30;99.90;;;;;;5119424;27;20175;-81
2023/08/18 06:07:12;;;;;;;5.10;4.50;;;20.30;99.90;;;;;;5119877;27;20174;-80
2023/08/18 06:09:38;;;;;;;4.90;4.50;;;20.20;99.90;;;;;;5134836;27;20179;-79
2023/08/18 06:12:04;;;;;;;5.00;4.60;;;20.10;99.90;;;;;;5117042;27;20177;-78
2023/08/18 06:14:29;;;;;;;4.80;4.25;;;20.10;99.90;;;;;;5134626;27;20202;-80
2023/08/18 06:16:55;;;;;;;5.45;4.95;;;20.40;99.90;;;;;;5117245;27;20189;-78
2023/08/18 06:19:20;;;;;;;5.07;4.68;;;20.40;99.90;;;;;;5120284;27;20198;-83
2023/08/18 06:21:46;;;;;;;5.20;4.70;;;20.30;99.90;;;;;;5127869;27;20195;-83
2023/08/18 06:24:11;;;;;;;5.47;4.68;;;20.60;99.90;;;;;;5130360;27;20630;-83
2023/08/18 06:26:37;;;;;;;6.15;4.82;;;20.50;99.90;;;;;;5131099;27;20210;-83
2023/08/18 06:29:02;;;;;;;5.85;5.38;;;20.30;99.90;;;;;;5148904;27;20187;-83
2023/08/18 06:31:28;;;;;;;5.28;4.75;;;20.20;99.90;;;;;;5141002;27;20247;-84
2023/08/18 06:33:55;;;;;;;6.43;5.82;;;20.30;99.90;;;;;;5138068;27;20190;-83
2023/08/18 06:36:20;;;;;;;5.25;4.78;;;20.30;99.90;;;;;;5141811;27;20246;-85
2023/08/18 06:38:46;;;;;;;8.38;6.45;;;20.00;99.90;;;;;;5141975;27;20611;-85
2023/08/18 06:41:11;;;;;;;6.93;6.10;;;19.70;99.90;;;;;;5141999;27;20163;-85
2023/08/18 06:43:37;;;;;;;5.97;5.47;;;19.80;99.90;;;;;;5141144;27;20167;-85
2023/08/18 06:46:05;;;;;;;5.10;4.40;;;20.50;99.90;;;;;;5122977;28;20182;-85
2023/08/18 06:48:30;;;;;;;5.45;4.95;;;20.60;99.90;;;;;;5142220;28;20191;-85
2023/08/18 06:50:56;;;;;;;6.00;5.40;;;20.50;99.90;;;;;;5123530;28;20177;-85
2023/08/18 06:53:21;;;;;;;4.55;4.15;;;20.20;99.90;;;;;;5142844;28;20199;-85
2023/08/18 06:55:47;;;;;;;5.63;5.13;;;20.50;99.90;;;;;;5142811;28;20171;-85
2023/08/18 06:58:12;;;;;;;5.68;5.07;;;20.60;99.90;;;;;;5140969;28;20685;-84
2023/08/18 07:00:38;;;;;;;6.10;5.50;;;20.60;99.90;;;;;;5141272;27;20159;-82
2023/08/18 07:03:04;;;;;;;6.32;5.72;;;20.40;99.90;;;;;;5120615;27;20171;-84
2023/08/18 07:05:29;;;;;;;5.97;5.47;;;20.30;99.90;;;;;;5139473;27;20245;-83
2023/08/18 07:07:55;;;;;;;7.28;5.15;;;20.20;99.90;;;;;;5140362;27;20199;-83
2023/08/18 07:10:21;;;;;;;6.65;5.65;;;20.10;99.90;;;;;;5139062;27;20216;-88
2023/08/18 07:12:46;;;;;;;9.73;5.97;;;20.10;99.90;;;;;;5119418;27;20277;-84
2023/08/18 07:15:12;;;;;;;13.52;6.63;;;20.10;99.90;;;;;;5116887;27;20225;-80
2023/08/18 07:17:38;;;;;;;8.52;6.05;;;20.10;99.90;;;;;;5130808;27;20171;-81
2023/08/18 07:20:06;;;;;;;7.95;5.85;;;20.20;99.90;;;;;;5119547;27;20163;-81
2023/08/18 07:22:31;;;;;;;5.88;5.38;;;20.30;99.90;;;;;;5120002;27;20171;-89
2023/08/18 07:24:57;;;;;;;7.82;5.43;;;20.40;99.90;;;;;;5137139;27;20261;-86
2023/08/18 07:27:23;;;;;;;5.45;4.95;;;20.50;99.90;;;;;;5118835;27;20205;-86
2023/08/18 07:29:48;;;;;;;5.60;4.75;;;20.60;99.90;;;;;;5136792;27;20214;-86
2023/08/18 07:32:14;;;;;;;6.28;5.10;;;20.60;99.90;;;;;;5118941;27;20175;-84
2023/08/18 07:34:39;;;;;;;5.30;4.80;;;20.80;99.90;;;;;;5135705;27;20182;-86
2023/08/18 07:37:05;;;;;;;6.07;4.40;;;20.80;99.90;;;;;;5137159;27;20181;-87
2023/08/18 07:39:31;;;;;;;5.00;4.20;;;20.90;99.90;;;;;;5118393;27;20581;-87
2023/08/18 07:41:56;;;;;;;4.00;3.63;;;21.00;99.90;;;;;;5117955;27;20175;-87
2023/08/18 07:44:22;;;;;;;4.63;4.05;;;21.10;99.90;;;;;;5118715;27;20625;-83
2023/08/18 07:46:48;;;;;;;4.10;3.70;;;21.20;99.90;;;;;;5137138;27;20625;-86
2023/08/18 07:49:13;;;;;;;4.05;3.60;;;21.30;99.90;;;;;;5136862;27;20179;-86
2023/08/18 07:51:39;;;;;;;3.88;3.50;;;21.40;99.90;;;;;;5111410;28;20172;-86
2023/08/18 07:54:06;;;;;;;4.15;3.60;;;21.40;99.90;;;;;;5105614;27;20191;-86
2023/08/18 07:56:31;;;;;;;3.90;3.58;;;21.60;99.90;;;;;;5136801;27;20175;-86
2023/08/18 07:58:57;;;;;;;6.30;4.00;;;21.80;99.90;;;;;;5118113;27;20210;-86
2023/08/18 08:01:23;;;;;;;6.63;3.95;;;21.90;99.90;;;;;;5117621;27;20208;-86
2023/08/18 08:03:48;;;;;;;5.15;3.42;;;22.00;99.90;;;;;;5136496;27;20532;-86
2023/08/18 08:06:14;;;;;;;6.18;3.95;;;22.10;99.90;;;;;;5117954;27;20258;-86
2023/08/18 08:08:40;;;;;;;4.10;3.70;;;22.20;99.90;;;;;;5118128;27;20201;-85
2023/08/18 08:11:06;;;;;;;3.78;3.38;;;22.40;99.90;;;;;;5116708;27;20182;-86
2023/08/18 08:13:31;;;;;;;3.90;3.50;;;22.50;99.90;;;;;;5136401;27;20210;-86
2023/08/18 08:15:57;;;;;;;4.10;3.70;;;22.60;99.90;;;;;;5117711;27;20574;-84
2023/08/18 08:18:22;;;;;;;3.63;3.25;;;22.80;99.90;;;;;;5118124;27;20187;-87
2023/08/18 08:20:48;;;;;;;4.03;3.65;;;22.90;99.90;;;;;;5117393;27;20197;-86
2023/08/18 08:23:15;;;;;;;4.22;3.83;;;23.10;93.80;;;;;;5117816;27;20555;-86
2023/08/18 08:25:41;;;;;;;4.97;3.50;;;23.20;8.00;;;;;;5117601;27;20185;-86
2023/08/18 08:28:07;;;;;;;4.88;3.53;;;23.30;40.40;;;;;;5117784;27;20195;-87
2023/08/18 08:30:32;;;;;;;4.28;3.70;;;23.30;22.20;;;;;;5116762;27;20177;-84
2023/08/18 08:32:58;;;;;;;4.18;3.33;;;23.50;1.00;;;;;;5135919;27;20205;-87
2023/08/18 08:35:24;;;;;;;3.45;3.05;;;23.60;1.00;;;;;;5135760;27;20213;-85
2023/08/18 08:37:49;;;;;;;3.72;3.33;;;23.80;1.00;;;;;;5136082;27;20187;-86
2023/08/18 08:40:18;;;;;;;3.65;3.08;;;23.90;1.00;;;;;;5135213;27;20160;-85
2023/08/18 08:42:44;;;;;;;3.58;3.28;;;24.00;1.00;;;;;;5135728;27;20638;-85
2023/08/18 08:45:10;;;;;;;3.47;3.17;;;24.20;1.00;;;;;;5136030;27;20179;-86
2023/08/18 08:47:39;;;;;;;3.30;3.05;;;24.30;1.00;;;;;;5117534;27;20182;-86
2023/08/18 08:50:06;;;;;;;3.63;3.30;;;24.50;1.00;;;;;;5116336;27;20181;-85
2023/08/18 08:52:37;;;;;;;5.22;3.10;;;24.70;1.00;;;;;;5135345;27;20182;-87
2023/08/18 08:55:04;;;;;;;3.83;3.20;;;24.80;1.00;;;;;;5135876;27;20159;-86
2023/08/18 08:57:29;;;;;;;3.00;2.70;;;24.90;1.00;;;;;;5117193;27;20167;-84
2023/08/18 08:59:55;;;;;;;2.92;2.70;;;25.00;99.90;;;;;;5134802;27;20193;-86
2023/08/18 09:02:21;;;;;;;3.92;2.85;;;25.10;1.00;;;;;;5116960;27;20175;-86
2023/08/18 09:04:47;;;;;;;3.67;3.17;;;25.30;85.50;;;;;;5116891;27;20553;-86
2023/08/18 09:07:14;;;;;;;4.25;1.83;;;25.40;47.40;;;;;;5117133;27;20262;-86
2023/08/18 09:09:40;;;;;;;2.17;1.60;;;25.50;99.90;;;;;;5135030;27;20179;-85
2023/08/18 09:12:07;;;;;;;2.53;1.60;;;25.70;99.90;;;;;;5135120;27;20224;-85
2023/08/18 09:14:39;;;;;;;1.85;1.73;;;25.90;99.90;;;;;;5135368;27;20206;-85
2023/08/18 09:17:05;;;;;;;2.00;1.48;;;26.00;1.00;;;;;;5116545;27;20167;-86
2023/08/18 09:19:31;;;;;;;1.77;1.60;;;25.90;1.00;;;;;;5135063;27;20279;-85
2023/08/18 09:21:59;;;;;;;1.58;1.40;;;26.00;99.90;;;;;;5134241;27;20171;-85
2023/08/18 09:24:25;;;;;;;1.77;1.60;;;26.20;1.00;;;;;;5116028;27;20269;-86
2023/08/18 09:26:51;;;;;;;2.42;1.50;;;26.30;1.00;;;;;;5135075;27;20228;-86
2023/08/18 09:29:16;;;;;;;1.65;1.50;;;26.40;1.00;;;;;;5134899;27;20186;-86
2023/08/18 09:31:45;;;;;;;1.75;1.48;;;26.60;99.90;;;;;;5115886;27;20541;-86
2023/08/18 09:34:21;;;;;;;1.73;1.63;;;26.80;1.00;;;;;;5134897;27;20221;-86
2023/08/18 09:36:54;;;;;;;1.80;1.60;;;26.70;99.90;;;;;;5115223;27;20537;-86
2023/08/18 09:39:20;;;;;;;2.15;1.60;;;26.80;1.00;;;;;;5116341;27;20215;-86
2023/08/18 09:41:53;;;;;;;1.65;1.50;;;27.00;1.00;;;;;;5115555;27;20171;-86
2023/08/18 09:44:20;;;;;;;2.35;1.52;;;27.10;99.90;;;;;;5116117;27;20311;-86
2023/08/18 09:46:54;;;;;;;1.98;1.40;;;27.20;1.00;;;;;;5116146;27;20189;-86
2023/08/18 09:49:21;;;;;;;1.70;1.60;;;27.40;1.00;;;;;;5135161;27;20205;-83
2023/08/18 09:51:55;;;;;;;1.90;1.80;;;27.40;1.00;;;;;;5134768;27;20171;-84
2023/08/18 09:54:24;;;;;;;1.77;1.60;;;27.50;1.00;;;;;;5136190;27;20193;-83
2023/08/18 09:56:55;;;;;;;2.42;1.60;;;27.50;1.00;;;;;;5118463;27;20167;-84
2023/08/18 09:59:27;;;;;;;2.28;1.55;;;27.60;1.00;;;;;;5117690;27;20221;-83
2023/08/18 10:01:53;;;;;;;2.85;1.55;;;27.80;99.90;;;;;;5136259;27;20186;-84
2023/08/18 10:04:24;;;;;;;1.88;1.58;;;27.60;99.90;;;;;;5117038;27;20174;-83
2023/08/18 10:06:52;;;;;;;1.60;1.50;;;27.80;99.90;;;;;;5137485;27;20250;-84
2023/08/18 10:09:19;;;;;;;1.95;1.48;;;28.00;1.00;;;;;;5134536;27;20276;-85
2023/08/18 10:11:45;;;;;;;1.40;1.30;;;28.30;1.00;;;;;;5134187;27;20260;-85
2023/08/18 10:14:11;;;;;;;1.70;1.60;;;28.50;99.90;;;;;;5116216;27;20194;-86
2023/08/18 10:16:37;;;;;;;2.60;1.58;;;28.40;1.00;;;;;;5121076;28;20649;-83
2023/08/18 10:19:04;;;;;;;2.72;1.83;;;28.40;1.00;;;;;;5119933;27;20194;-82
2023/08/18 10:21:29;;;;;;;1.90;1.55;;;28.10;1.00;;;;;;5118462;27;20649;-82
2023/08/18 10:23:55;;;;;;;1.88;1.73;;;28.40;1.00;;;;;;5120804;27;20186;-83
2023/08/18 10:26:24;;;;;;;2.13;1.70;;;28.70;32.00;;;;;;5121288;27;20235;-81
2023/08/18 10:28:50;;;;;;;2.00;1.70;;;28.60;1.00;;;;;;5138301;27;20198;-84
2023/08/18 10:31:16;;;;;;;2.72;1.90;;;28.70;5.40;;;;;;5118535;27;20266;-83
2023/08/18 10:33:43;;;;;;;2.70;1.58;;;28.80;1.00;;;;;;5134192;27;20294;-80
2023/08/18 10:36:10;;;;;;;2.45;1.60;;;29.00;1.00;;;;;;5116263;27;20175;-79
2023/08/18 10:38:39;;;;;;;1.60;1.50;;;29.20;99.90;;;;;;5116390;27;20191;-84
2023/08/18 10:41:04;;;;;;;2.35;1.70;;;29.20;1.00;;;;;;5114872;28;20588;-84
2023/08/18 10:43:51;;;;;;;2.28;1.70;;;29.10;1.00;;;;;;5134131;27;20205;-84
2023/08/18 10:46:18;;;;;;;3.45;1.60;;;29.40;1.00;;;;;;5115712;27;20233;-84
2023/08/18 10:48:45;;;;;;;1.77;1.52;;;29.40;1.00;;;;;;5134315;28;20210;-84
2023/08/18 10:51:10;;;;;;;2.72;1.60;;;29.30;99.90;;;;;;5133278;28;20579;-84
2023/08/18 10:53:40;;;;;;;2.72;1.60;;;29.30;99.90;;;;;;5134183;28;20194;-84
2023/08/18 10:56:06;;;;;;;1.63;1.50;;;29.50;1.00;;;;;;5133913;28;20202;-84
2023/08/18 10:58:32;;;;;;;2.20;1.55;;;29.50;99.90;;;;;;5133740;22;20230;-84
2023/08/18 11:00:59;;;;;;;1.63;1.52;;;29.60;1.00;;;;;;5017691;28;20614;-80
2023/08/18 11:03:25;;;;;;;2.22;1.63;;;29.70;99.90;;;;;;5018329;28;20174;-81
2023/08/18 11:05:51;;;;;;;2.42;1.48;;;29.50;99.90;;;;;;5018263;28;20178;-83
2023/08/18 11:08:17;;;;;;;1.42;1.33;;;29.40;99.90;;;;;;5035301;28;20201;-82
2023/08/18 11:10:44;;;;;;;3.40;1.50;;;29.40;99.90;;;;;;5035003;28;20178;-80
2023/08/18 11:13:29;;;;;;;1.60;1.50;;;29.70;1.00;;;;;;5023017;28;20206;-82
2023/08/18 11:15:56;;;;;;;2.40;1.42;;;30.10;99.90;;;;;;5016577;28;20183;-81
2023/08/18 11:18:23;;;;;;;2.40;1.90;;;30.20;33.70;;;;;;5015552;28;20187;-83
2023/08/18 11:20:51;;;;;;;2.55;1.92;;;30.60;99.90;;;;;;5015324;28;20174;-81
2023/08/18 11:23:17;;;;;;;2.78;1.67;;;30.40;1.00;;;;;;5016490;28;20178;-81
2023/08/18 11:25:44;;;;;;;2.28;1.75;;;30.40;99.90;;;;;;5016260;28;20183;-81
2023/08/18 11:28:11;;;;;;;2.92;1.63;;;30.60;1.00;;;;;;5014997;28;20195;-81
2023/08/18 11:30:37;;;;;;;1.83;1.73;;;30.60;38.50;;;;;;5015659;28;20171;-81
2023/08/18 11:33:03;;;;;;;2.53;1.80;;;30.40;99.90;;;;;;5016450;28;20687;-82
2023/08/18 11:35:30;;;;;;;1.85;1.65;;;30.70;1.00;;;;;;5016335;28;20175;-81
2023/08/18 11:37:56;;;;;;;1.60;1.42;;;30.90;99.90;;;;;;4990038;28;20183;-80
2023/08/18 11:40:23;;;;;;;2.45;1.60;;;30.70;1.00;;;;;;5016162;28;20174;-81
2023/08/18 11:42:50;;;;;;;2.70;1.50;;;30.90;1.00;;;;;;5036216;28;20606;-82
2023/08/18 11:45:21;;;;;;;2.15;1.55;;;30.90;99.90;;;;;;5019191;28;20171;-80
2023/08/18 11:47:57;;;;;;;2.35;1.60;;;30.90;1.00;;;;;;5029633;28;20183;-80
2023/08/18 11:50:31;;;;;;;2.53;1.60;;;30.90;99.90;;;;;;5026766;28;20179;-80
2023/08/18 11:52:57;;;;;;;1.98;1.60;;;30.90;1.00;;;;;;5029684;28;20338;-84
2023/08/18 11:55:44;;;;;;;1.90;1.60;;;31.10;99.90;;;;;;5020387;28;20212;-82
2023/08/18 11:58:14;;;;;;;2.35;1.70;;;31.10;1.00;;;;;;5033398;28;20166;-86
2023/08/18 12:00:42;;;;;;;1.75;1.60;;;30.90;1.00;;;;;;4999671;28;20591;-84
2023/08/18 12:03:26;;;;;;;2.90;1.55;;;31.10;1.00;;;;;;5012634;28;20179;-84
2023/08/18 12:05:58;;;;;;;3.30;1.55;;;31.40;1.00;;;;;;5012209;28;20195;-85
2023/08/18 12:08:26;;;;;;;1.60;1.38;;;31.60;1.00;;;;;;5013827;28;20191;-81
2023/08/18 12:10:53;;;;;;;1.60;1.40;;;31.50;99.90;;;;;;4997589;28;20235;-83
2023/08/18 12:13:20;;;;;;;1.67;1.40;;;31.40;99.90;;;;;;4997559;28;20199;-82
2023/08/18 12:15:45;;;;;;;2.38;1.60;;;31.60;1.00;;;;;;5014484;28;20173;-81
2023/08/18 12:18:11;;;;;;;2.05;1.60;;;31.70;1.00;;;;;;4996965;28;20260;-81
2023/08/18 12:20:36;;;;;;;1.75;1.60;;;31.40;1.00;;;;;;4996749;28;20177;-82
2023/08/18 12:23:05;;;;;;;1.92;1.40;;;31.60;1.00;;;;;;4997704;28;20549;-83
2023/08/18 12:25:31;;;;;;;2.38;1.45;;;31.60;1.00;;;;;;5014196;28;20258;-81
2023/08/18 12:27:56;;;;;;;1.70;1.58;;;31.80;1.00;;;;;;5014303;28;20248;-84
2023/08/18 12:30:22;;;;;;;2.25;1.50;;;32.10;1.00;;;;;;5012946;28;20261;-81
2023/08/18 12:32:50;;;;;;;2.42;1.63;;;32.30;1.00;;;;;;5021930;28;20202;-82
2023/08/18 12:35:16;;;;;;;2.78;1.63;;;32.50;1.00;;;;;;5031066;28;20319;-82
2023/08/18 12:37:42;;;;;;;1.50;1.30;;;32.60;1.00;;;;;;5033830;28;20269;-82
2023/08/18 12:40:11;;;;;;;1.65;1.50;;;32.60;99.90;;;;;;5011990;28;20646;-81
2023/08/18 12:42:38;;;;;;;1.90;1.40;;;32.60;99.90;;;;;;5001463;28;20237;-83
2023/08/18 12:45:05;;;;;;;1.42;1.30;;;32.50;99.90;;;;;;5007196;28;20205;-82